Time;durP1;ratioP1;P1;durP2;ratioP2;P2;SDS_P1;SDS_P2;PMS_P1;PMS_P2;Temp;Humidity;BMP_temperature;BMP_pressure;BME280_temperature;BME280_humidity;BME280_pressure;Samples;Min_cycle;Max_cycle;Signal;HPM_P1;HPM_P2
2022/05/05 00:02:02;;;;;;;25.95;6.68;;;;;;;;;;5004521;28;20152;-84
2022/05/05 00:04:27;;;;;;;18.63;7.40;;;;;;;;;;5023034;28;20120;-84
2022/05/05 00:06:53;;;;;;;21.33;6.93;;;;;;;;;;5004918;28;20049;-84
2022/05/05 00:09:19;;;;;;;33.10;7.25;;;;;;;;;;5022026;28;20026;-83
2022/05/05 00:14:30;;;;;;;36.15;7.40;;;;;;;;;;5022792;28;20117;-83
2022/05/05 00:17:02;;;;;;;27.75;6.50;;;;;;;;;;5018515;28;20029;-83
2022/05/05 00:19:30;;;;;;;30.20;7.30;;;;;;;;;;5020333;28;20030;-83
2022/05/05 00:21:57;;;;;;;20.83;6.63;;;;;;;;;;5017959;28;20460;-83
2022/05/05 00:24:23;;;;;;;14.68;7.15;;;;;;;;;;5017160;28;20033;-83
2022/05/05 00:26:48;;;;;;;25.98;6.93;;;;;;;;;;5018171;28;20029;-83
2022/05/05 00:29:15;;;;;;;22.85;7.07;;;;;;;;;;5025419;28;20046;-83
2022/05/05 00:31:42;;;;;;;17.00;7.03;;;;;;;;;;5024043;28;20036;-84
2022/05/05 00:34:08;;;;;;;34.00;7.38;;;;;;;;;;5001882;28;20029;-84
2022/05/05 00:36:34;;;;;;;19.95;6.97;;;;;;;;;;5005934;28;20032;-83
2022/05/05 00:38:59;;;;;;;21.83;7.20;;;;;;;;;;5016606;28;20095;-83
2022/05/05 00:41:25;;;;;;;24.13;6.82;;;;;;;;;;4998521;28;20048;-85
2022/05/05 00:43:51;;;;;;;22.83;7.20;;;;;;;;;;5024746;28;20089;-83
2022/05/05 00:46:16;;;;;;;17.10;6.03;;;;;;;;;;5014841;28;20033;-83
2022/05/05 00:48:45;;;;;;;25.02;7.20;;;;;;;;;;5022211;28;20467;-83
2022/05/05 00:51:11;;;;;;;33.05;7.93;;;;;;;;;;5018706;28;20033;-83
2022/05/05 00:53:36;;;;;;;22.50;6.95;;;;;;;;;;5021028;28;20301;-83
2022/05/05 00:56:07;;;;;;;23.63;6.75;;;;;;;;;;5020840;28;20056;-84
2022/05/05 00:58:33;;;;;;;20.58;6.57;;;;;;;;;;5020319;28;20500;-83
2022/05/05 01:01:04;;;;;;;26.17;7.85;;;;;;;;;;5001356;28;20072;-84
2022/05/05 01:03:35;;;;;;;22.20;7.05;;;;;;;;;;5021938;28;20040;-84
2022/05/05 01:06:08;;;;;;;22.38;6.97;;;;;;;;;;5016013;28;20090;-85
2022/05/05 01:08:35;;;;;;;21.05;6.57;;;;;;;;;;5018884;28;20128;-85
2022/05/05 01:11:00;;;;;;;26.05;6.90;;;;;;;;;;5019457;28;20405;-83
2022/05/05 01:13:27;;;;;;;20.48;6.78;;;;;;;;;;5020616;28;20099;-86
2022/05/05 01:15:54;;;;;;;26.50;7.05;;;;;;;;;;5005398;28;20116;-84
2022/05/05 01:18:19;;;;;;;22.80;6.47;;;;;;;;;;5002213;28;20037;-85
2022/05/05 01:20:52;;;;;;;19.80;7.25;;;;;;;;;;5022474;28;20234;-84
2022/05/05 01:23:18;;;;;;;23.98;7.18;;;;;;;;;;5020277;28;20086;-84
2022/05/05 01:28:31;;;;;;;18.85;6.72;;;;;;;;;;5020307;28;20087;-84
2022/05/05 01:30:57;;;;;;;22.98;8.07;;;;;;;;;;5007614;28;20075;-83
2022/05/05 01:33:25;;;;;;;24.70;7.05;;;;;;;;;;5023128;28;20029;-84
2022/05/05 01:35:53;;;;;;;20.48;6.72;;;;;;;;;;5019293;28;20275;-81
2022/05/05 01:38:40;;;;;;;23.52;6.90;;;;;;;;;;5018206;28;20567;-82
2022/05/05 01:41:11;;;;;;;32.28;6.50;;;;;;;;;;5008593;28;20491;-82
2022/05/05 01:43:38;;;;;;;20.42;6.30;;;;;;;;;;5037493;28;20068;-80
2022/05/05 01:46:05;;;;;;;21.55;7.05;;;;;;;;;;5002833;28;20137;-81
2022/05/05 01:48:32;;;;;;;22.33;7.28;;;;;;;;;;5025540;28;20439;-82
2022/05/05 01:50:57;;;;;;;18.02;6.53;;;;;;;;;;5018106;28;20030;-81
2022/05/05 01:53:23;;;;;;;22.98;7.45;;;;;;;;;;5024320;28;20447;-82
2022/05/05 01:55:49;;;;;;;17.63;6.03;;;;;;;;;;5026879;28;20444;-82
2022/05/05 01:58:14;;;;;;;18.60;6.68;;;;;;;;;;5024998;28;20116;-81
2022/05/05 02:00:40;;;;;;;14.18;5.40;;;;;;;;;;5019074;28;20022;-81
2022/05/05 02:03:15;;;;;;;20.92;7.07;;;;;;;;;;4990266;28;20511;-82
2022/05/05 02:05:45;;;;;;;24.77;6.97;;;;;;;;;;5023149;28;20550;-80
2022/05/05 02:08:11;;;;;;;26.73;6.68;;;;;;;;;;5005057;28;20030;-82
2022/05/05 02:10:37;;;;;;;25.73;7.07;;;;;;;;;;5024707;28;20030;-81
2022/05/05 02:13:05;;;;;;;32.60;7.65;;;;;;;;;;5022252;28;20361;-83
2022/05/05 02:15:32;;;;;;;20.38;6.47;;;;;;;;;;5005214;28;20033;-83
2022/05/05 02:18:07;;;;;;;29.05;6.30;;;;;;;;;;5009127;28;20129;-83
2022/05/05 02:20:32;;;;;;;16.80;6.70;;;;;;;;;;5023670;28;20032;-82
2022/05/05 02:22:59;;;;;;;32.33;7.85;;;;;;;;;;5019451;28;20447;-90
2022/05/05 02:30:04;;;;;;;;;;;;;;;;;;;;;
2022/05/05 02:38:42;;;;;;;29.60;7.32;;;;;;;;;;4967674;28;20031;-92
2022/05/05 02:39:15;;;;;;;22.00;6.72;;;;;;;;;;4984926;28;20042;-92
2022/05/05 02:41:49;;;;;;;23.45;6.97;;;;;;;;;;4955201;28;20151;-93
2022/05/05 02:44:26;;;;;;;22.65;7.30;;;;;;;;;;4966963;28;20041;-92
2022/05/05 02:47:24;;;;;;;18.17;7.18;;;;;;;;;;5008409;28;20064;-92
2022/05/05 02:49:49;;;;;;;25.77;7.82;;;;;;;;;;5013695;28;20029;-91
2022/05/05 02:52:34;;;;;;;26.05;7.00;;;;;;;;;;5028377;28;20048;-92
2022/05/05 02:55:01;;;;;;;27.73;8.80;;;;;;;;;;5020983;28;20064;-93
2022/05/05 02:57:32;;;;;;;26.35;8.52;;;;;;;;;;5029255;28;20033;-94
2022/05/05 03:00:00;;;;;;;25.52;7.93;;;;;;;;;;5025623;28;20040;-94
2022/05/05 03:02:30;;;;;;;28.58;8.00;;;;;;;;;;5013262;28;20060;-94
2022/05/05 03:04:55;;;;;;;21.98;7.70;;;;;;;;;;4996193;28;20516;-94
2022/05/05 03:07:23;;;;;;;23.23;8.27;;;;;;;;;;5028643;28;20041;-94
2022/05/05 03:09:49;;;;;;;25.27;7.78;;;;;;;;;;5032626;28;20017;-94
2022/05/05 03:12:15;;;;;;;25.27;7.72;;;;;;;;;;5028427;28;20044;-93
2022/05/05 03:14:40;;;;;;;20.15;8.38;;;;;;;;;;5011434;28;20029;-93
2022/05/05 03:17:06;;;;;;;22.00;7.20;;;;;;;;;;5029264;28;20632;-95
2022/05/05 03:19:32;;;;;;;22.30;7.40;;;;;;;;;;5011738;28;20332;-93
2022/05/05 03:21:59;;;;;;;27.40;8.13;;;;;;;;;;5010765;28;20033;-93
2022/05/05 03:24:27;;;;;;;24.90;7.55;;;;;;;;;;5027845;28;20135;-93
2022/05/05 03:27:00;;;;;;;21.85;7.07;;;;;;;;;;5030855;28;20108;-93
2022/05/05 03:29:25;;;;;;;;;;;;;;;;;;5026775;28;20049;-92
2022/05/05 03:31:51;;;;;;;27.45;7.03;;;;;;;;;;5024662;28;20400;-95
2022/05/05 03:34:17;;;;;;;21.88;8.20;;;;;;;;;;5029966;28;20090;-94
2022/05/05 03:36:43;;;;;;;17.70;5.13;;;;;;;;;;5031600;28;20399;-95
2022/05/05 03:39:08;;;;;;;16.02;6.28;;;;;;;;;;5030524;28;20021;-93
2022/05/05 03:41:34;;;;;;;22.13;7.07;;;;;;;;;;5028834;28;20042;-93
2022/05/05 03:44:04;;;;;;;16.23;6.85;;;;;;;;;;5028006;28;20037;-93
2022/05/05 03:46:30;;;;;;;16.92;6.65;;;;;;;;;;5021032;28;20090;-93
2022/05/05 03:48:59;;;;;;;18.67;6.38;;;;;;;;;;5015324;28;20037;-93
2022/05/05 03:51:25;;;;;;;19.73;6.88;;;;;;;;;;5027332;28;20272;-92
2022/05/05 03:53:52;;;;;;;24.85;7.28;;;;;;;;;;5030502;28;20044;-93
2022/05/05 03:56:17;;;;;;;20.02;6.82;;;;;;;;;;5006247;28;20488;-93
2022/05/05 03:58:48;;;;;;;16.25;5.72;;;;;;;;;;5011417;28;20041;-93
2022/05/05 04:01:13;;;;;;;15.98;6.30;;;;;;;;;;5012599;28;20029;-93
2022/05/05 04:03:43;;;;;;;22.90;6.47;;;;;;;;;;5018425;28;20138;-94
2022/05/05 04:06:10;;;;;;;20.45;6.65;;;;;;;;;;4997218;28;20017;-92
2022/05/05 04:08:37;;;;;;;19.65;7.30;;;;;;;;;;5030574;28;20028;-93
2022/05/05 04:11:05;;;;;;;13.00;5.93;;;;;;;;;;5028997;28;20021;-94
2022/05/05 04:13:31;;;;;;;17.27;6.65;;;;;;;;;;5024878;28;20047;-93
2022/05/05 04:15:57;;;;;;;11.07;5.30;;;;;;;;;;5021484;28;20037;-95
2022/05/05 04:18:22;;;;;;;21.27;6.28;;;;;;;;;;5027391;28;20026;-94
2022/05/05 04:20:48;;;;;;;25.63;6.03;;;;;;;;;;5011721;28;20044;-95
2022/05/05 04:23:14;;;;;;;17.13;5.78;;;;;;;;;;5025808;28;20238;-92
2022/05/05 04:25:41;;;;;;;29.30;6.50;;;;;;;;;;5028160;28;20048;-91
2022/05/05 04:28:08;;;;;;;24.73;6.05;;;;;;;;;;5022476;28;20633;-91
2022/05/05 04:30:34;;;;;;;12.48;5.43;;;;;;;;;;5026677;28;20060;-90
2022/05/05 04:33:00;;;;;;;18.98;6.53;;;;;;;;;;5009571;28;20065;-91
2022/05/05 04:35:25;;;;;;;16.00;6.05;;;;;;;;;;5006627;28;20373;-90
2022/05/05 04:37:51;;;;;;;16.33;6.50;;;;;;;;;;5020423;28;20523;-93
2022/05/05 04:40:17;;;;;;;14.82;5.65;;;;;;;;;;5008192;28;20044;-92
2022/05/05 04:42:42;;;;;;;18.17;5.68;;;;;;;;;;5028993;28;20035;-92
2022/05/05 04:45:08;;;;;;;16.70;5.55;;;;;;;;;;5025383;28;20033;-91
2022/05/05 04:47:36;;;;;;;13.52;5.20;;;;;;;;;;5023343;28;20041;-90
2022/05/05 04:50:02;;;;;;;12.80;5.95;;;;;;;;;;5009792;28;20523;-90
2022/05/05 04:52:28;;;;;;;18.40;5.80;;;;;;;;;;5004590;28;20033;-91
2022/05/05 04:54:55;;;;;;;15.95;5.50;;;;;;;;;;5029385;28;20125;-94
2022/05/05 04:57:21;;;;;;;14.35;5.38;;;;;;;;;;5009017;28;20133;-94
2022/05/05 04:59:54;;;;;;;19.65;6.75;;;;;;;;;;5026387;28;20571;-94
2022/05/05 05:02:20;;;;;;;25.85;5.90;;;;;;;;;;5011055;28;20208;-95
2022/05/05 05:04:46;;;;;;;17.50;6.13;;;;;;;;;;5013094;28;20180;-94
2022/05/05 05:07:11;;;;;;;16.70;6.03;;;;;;;;;;5030493;28;20049;-94
2022/05/05 05:09:37;;;;;;;19.90;5.85;;;;;;;;;;5024920;28;20027;-94
2022/05/05 05:12:06;;;;;;;19.55;5.82;;;;;;;;;;5024408;28;20029;-95
2022/05/05 05:14:31;;;;;;;14.57;5.63;;;;;;;;;;5005344;28;20036;-94
2022/05/05 05:16:57;;;;;;;11.77;4.90;;;;;;;;;;4990730;28;21167;-94
2022/05/05 05:19:25;;;;;;;18.10;6.07;;;;;;;;;;5027282;28;20025;-94
2022/05/05 05:21:50;;;;;;;24.80;5.97;;;;;;;;;;5030476;28;20029;-95
2022/05/05 05:24:16;;;;;;;18.33;5.80;;;;;;;;;;5027360;28;20048;-94
2022/05/05 05:26:44;;;;;;;19.27;5.00;;;;;;;;;;5035401;28;20084;-95
2022/05/05 05:29:11;;;;;;;27.02;5.93;;;;;;;;;;5019107;28;20026;-95
2022/05/05 05:31:37;;;;;;;13.82;5.53;;;;;;;;;;5018866;28;20030;-94
2022/05/05 05:34:05;;;;;;;23.38;6.32;;;;;;;;;;5033157;28;20030;-96
2022/05/05 05:36:30;;;;;;;22.50;5.85;;;;;;;;;;5038739;28;20032;-95
2022/05/05 05:38:59;;;;;;;15.25;6.22;;;;;;;;;;5021507;28;21400;-96
2022/05/05 05:41:25;;;;;;;18.52;5.15;;;;;;;;;;5033060;28;20037;-93
2022/05/05 05:43:51;;;;;;;17.30;5.85;;;;;;;;;;5005994;28;20032;-94
2022/05/05 05:46:16;;;;;;;18.73;7.25;;;;;;;;;;5025140;28;20037;-94
2022/05/05 05:48:42;;;;;;;14.20;6.28;;;;;;;;;;5020515;28;20210;-94
2022/05/05 05:51:07;;;;;;;19.02;5.68;;;;;;;;;;5002143;28;20036;-95
2022/05/05 05:53:33;;;;;;;17.15;5.47;;;;;;;;;;5000979;28;20103;-90
2022/05/05 05:55:59;;;;;;;13.60;5.63;;;;;;;;;;5030224;28;20029;-90
2022/05/05 05:58:36;;;;;;;13.65;5.78;;;;;;;;;;5025113;28;20700;-90
2022/05/05 06:01:06;;;;;;;20.48;6.00;;;;;;;;;;5029898;28;20036;-90
2022/05/05 06:06:16;;;;;;;15.07;5.28;;;;;;;;;;5031057;28;20095;-91
2022/05/05 06:08:41;;;;;;;9.82;4.78;;;;;;;;;;5032470;28;20026;-90
2022/05/05 06:11:09;;;;;;;22.35;5.50;;;;;;;;;;5013724;28;20291;-89
2022/05/05 06:13:34;;;;;;;17.83;5.43;;;;;;;;;;5011646;28;20620;-90
2022/05/05 06:16:00;;;;;;;13.43;5.45;;;;;;;;;;5025546;28;20037;-90
2022/05/05 06:18:25;;;;;;;20.63;5.20;;;;;;;;;;5013122;28;20255;-90
2022/05/05 06:20:53;;;;;;;15.73;4.50;;;;;;;;;;4993685;28;20042;-90
2022/05/05 06:23:21;;;;;;;17.63;5.45;;;;;;;;;;5015236;28;20038;-91
2022/05/05 06:25:49;;;;;;;11.43;5.22;;;;;;;;;;5016319;28;20029;-91
2022/05/05 06:28:15;;;;;;;20.55;6.55;;;;;;;;;;5001593;28;20805;-92
2022/05/05 06:30:42;;;;;;;23.55;5.32;;;;;;;;;;5002450;28;20068;-91
2022/05/05 06:33:08;;;;;;;15.40;5.63;;;;;;;;;;5001537;28;20033;-91
2022/05/05 06:35:39;;;;;;;20.80;5.75;;;;;;;;;;5016789;28;20033;-95
2022/05/05 06:38:05;;;;;;;29.02;5.47;;;;;;;;;;5011164;28;20092;-91
2022/05/05 06:40:31;;;;;;;13.85;5.80;;;;;;;;;;5013016;28;20038;-91
2022/05/05 06:42:56;;;;;;;16.80;6.05;;;;;;;;;;4997824;28;20046;-90
2022/05/05 06:45:22;;;;;;;11.63;4.95;;;;;;;;;;5016263;28;20037;-90
2022/05/05 06:47:51;;;;;;;18.42;5.03;;;;;;;;;;5045452;28;20046;-90
2022/05/05 06:50:21;;;;;;;10.27;4.70;;;;;;;;;;5021069;28;20120;-91
2022/05/05 06:52:48;;;;;;;9.20;4.20;;;;;;;;;;5031664;28;20071;-95
2022/05/05 06:55:13;;;;;;;7.70;3.22;;;;;;;;;;5010484;28;20033;-94
2022/05/05 06:57:39;;;;;;;13.57;3.53;;;;;;;;;;5033747;28;20048;-94
2022/05/05 07:00:05;;;;;;;9.10;3.63;;;;;;;;;;5032477;28;20037;-94
2022/05/05 07:02:31;;;;;;;14.20;3.50;;;;;;;;;;5019311;28;20282;-95
2022/05/05 07:07:46;;;;;;;6.90;2.70;;;;;;;;;;5029299;28;20121;-96
2022/05/05 07:15:44;;;;;;;9.95;3.40;;;;;;;;;;2227329;22;20057;-58
2022/05/05 07:18:23;;;;;;;6.10;2.58;;;;;;;;;;4988761;28;20030;-58
2022/05/05 07:20:50;;;;;;;8.13;3.05;;;;;;;;;;4979280;23;20155;-96
2022/05/05 07:23:15;;;;;;;9.70;2.50;;;;;;;;;;4968316;28;20085;-94
2022/05/05 07:25:42;;;;;;;11.43;2.80;;;;;;;;;;4971509;28;20118;-95
2022/05/05 07:28:08;;;;;;;10.63;2.97;;;;;;;;;;4967690;28;20034;-92
2022/05/05 07:30:34;;;;;;;9.70;3.38;;;;;;;;;;4971176;28;20034;-94
2022/05/05 07:33:05;;;;;;;12.93;3.40;;;;;;;;;;4950351;29;20585;-92
2022/05/05 07:35:44;;;;;;;10.10;3.60;;;;;;;;;;4979680;28;20110;-96
2022/05/05 07:38:12;;;;;;;11.57;3.75;;;;;;;;;;4994436;28;20267;-96
2022/05/05 07:40:38;;;;;;;14.95;3.92;;;;;;;;;;4992950;28;20069;-96
2022/05/05 07:43:15;;;;;;;7.65;3.28;;;;;;;;;;4990795;28;20034;-96
2022/05/05 07:45:49;;;;;;;10.07;3.20;;;;;;;;;;4994105;28;20106;-96
2022/05/05 07:48:21;;;;;;;8.15;4.60;;;;;;;;;;4985950;28;20030;-92
2022/05/05 07:50:49;;;;;;;6.70;3.33;;;;;;;;;;4981857;28;20030;-94
2022/05/05 07:53:18;;;;;;;31.13;4.22;;;;;;;;;;4967743;28;20104;-92
2022/05/05 07:55:46;;;;;;;9.07;3.60;;;;;;;;;;4950484;28;20049;-94
2022/05/05 07:58:15;;;;;;;10.68;3.70;;;;;;;;;;4959838;28;20045;-96
2022/05/05 08:00:43;;;;;;;9.75;3.92;;;;;;;;;;4988779;28;20041;-93
2022/05/05 08:03:16;;;;;;;9.75;3.80;;;;;;;;;;4968284;28;20023;-95
2022/05/05 08:05:45;;;;;;;7.57;3.85;;;;;;;;;;4978928;28;20121;-94
2022/05/05 08:08:11;;;;;;;7.85;3.53;;;;;;;;;;4980509;28;20361;-92
2022/05/05 08:10:41;;;;;;;10.95;3.63;;;;;;;;;;4975728;28;20711;-92
2022/05/05 08:13:07;;;;;;;8.77;3.97;;;;;;;;;;4979413;28;20041;-91
2022/05/05 08:15:43;;;;;;;10.35;3.28;;;;;;;;;;4984646;28;20037;-91
2022/05/05 08:18:14;;;;;;;7.53;3.38;;;;;;;;;;4959550;28;20038;-94
2022/05/05 08:20:40;;;;;;;6.65;4.03;;;;;;;;;;4985728;28;20053;-95
2022/05/05 08:23:05;;;;;;;7.28;3.33;;;;;;;;;;4976919;28;20018;-93
2022/05/05 08:28:31;;;;;;;10.38;3.35;;;;;;;;;;4989376;28;20037;-92
2022/05/05 08:31:02;;;;;;;8.55;3.92;;;;;;;;;;4985708;28;20026;-93
2022/05/05 08:33:28;;;;;;;8.95;4.07;;;;;;;;;;4975256;28;20030;-95
2022/05/05 08:35:55;;;;;;;17.70;3.65;;;;;;;;;;4977696;28;20023;-94
2022/05/05 08:38:23;;;;;;;13.45;4.32;;;;;;;;;;4983681;28;20110;-93
2022/05/05 08:40:52;;;;;;;5.80;3.45;;;;;;;;;;4990193;28;20026;-94
2022/05/05 08:43:18;;;;;;;13.80;4.88;;;;;;;;;;4974763;28;20039;-95
2022/05/05 08:45:47;;;;;;;10.80;4.32;;;;;;;;;;4966281;28;20085;-94
2022/05/05 08:48:14;;;;;;;13.32;4.40;;;;;;;;;;4971416;28;20685;-95
2022/05/05 08:50:41;;;;;;;11.95;4.85;;;;;;;;;;4984169;28;20712;-94
2022/05/05 08:53:12;;;;;;;13.57;4.45;;;;;;;;;;4978001;28;20042;-96
2022/05/05 08:58:34;;;;;;;12.90;4.85;;;;;;;;;;4992307;28;20041;-96
2022/05/05 09:01:14;;;;;;;11.45;4.53;;;;;;;;;;4987306;28;20046;-92
2022/05/05 09:03:50;;;;;;;12.75;5.38;;;;;;;;;;4982153;28;20041;-94
2022/05/05 09:06:18;;;;;;;11.40;5.00;;;;;;;;;;4973725;28;20378;-94
2022/05/05 09:08:51;;;;;;;13.15;4.55;;;;;;;;;;4986174;28;20057;-96
2022/05/05 09:11:20;;;;;;;13.48;4.72;;;;;;;;;;4990809;28;20026;-94
2022/05/05 09:13:51;;;;;;;16.77;5.30;;;;;;;;;;4972171;28;20038;-93
2022/05/05 09:16:36;;;;;;;14.98;5.15;;;;;;;;;;4985391;28;20061;-92
2022/05/05 09:19:11;;;;;;;16.63;4.40;;;;;;;;;;4986044;28;20066;-94
2022/05/05 09:21:46;;;;;;;9.57;4.63;;;;;;;;;;4978048;28;20061;-94
2022/05/05 09:27:35;;;;;;;11.20;4.43;;;;;;;;;;5022679;28;20029;-96
2022/05/05 09:30:32;;;;;;;14.55;4.70;;;;;;;;;;4991155;28;20030;-94
2022/05/05 09:32:58;;;;;;;13.52;5.30;;;;;;;;;;4979685;28;20040;-93
2022/05/05 09:35:38;;;;;;;13.05;4.97;;;;;;;;;;4990423;28;20069;-93
2022/05/05 09:38:38;;;;;;;14.82;6.25;;;;;;;;;;4979207;28;20043;-92
2022/05/05 09:41:11;;;;;;;18.75;5.50;;;;;;;;;;4986446;28;20657;-94
2022/05/05 09:43:48;;;;;;;14.40;5.70;;;;;;;;;;5014915;28;20023;-96
2022/05/05 09:46:53;;;;;;;13.75;4.72;;;;;;;;;;4966580;28;20041;-96
2022/05/05 09:49:29;;;;;;;15.07;4.88;;;;;;;;;;5009585;28;20051;-94
2022/05/05 09:57:59;;;;;;;12.30;4.07;;;;;;;;;;5014769;28;20074;-95
2022/05/05 10:01:00;;;;;;;11.73;4.03;;;;;;;;;;4990357;28;20022;-91
2022/05/05 10:04:12;;;;;;;10.45;4.32;;;;;;;;;;4988792;28;20041;-93
2022/05/05 10:07:17;;;;;;;10.60;3.37;;;;;;;;;;4970212;28;20046;-94
2022/05/05 10:13:07;;;;;;;6.10;2.80;;;;;;;;;;4976864;28;20045;-92
2022/05/05 10:16:25;;;;;;;7.70;3.35;;;;;;;;;;4984933;28;20092;-93
2022/05/05 10:19:06;;;;;;;6.35;2.88;;;;;;;;;;4976580;28;20076;-93
2022/05/05 10:22:33;;;;;;;6.05;2.63;;;;;;;;;;4993433;28;20022;-93
2022/05/05 10:25:39;;;;;;;4.60;2.15;;;;;;;;;;4997258;28;20036;-91
2022/05/05 10:28:47;;;;;;;7.03;2.20;;;;;;;;;;4997714;28;20044;-96
2022/05/05 10:31:41;;;;;;;8.82;2.13;;;;;;;;;;4990361;28;20030;-95
2022/05/05 10:34:30;;;;;;;5.40;1.95;;;;;;;;;;4991400;28;20585;-93
2022/05/05 10:43:42;;;;;;;4.85;2.08;;;;;;;;;;4925331;29;20070;-95
2022/05/05 10:46:48;;;;;;;7.25;1.98;;;;;;;;;;4894990;29;20055;-88
2022/05/05 10:49:48;;;;;;;9.18;2.42;;;;;;;;;;4915037;29;20035;-96
2022/05/05 10:59:59;;;;;;;5.57;2.13;;;;;;;;;;4883400;29;20145;-92
2022/05/05 11:10:51;;;;;;;;;;;;;;;;;;;;;
2022/05/05 11:13:53;;;;;;;4.65;1.90;;;;;;;;;;4788928;29;20042;-94
2022/05/05 11:22:24;;;;;;;7.38;2.42;;;;;;;;;;4976059;28;20054;-94
2022/05/05 11:25:01;;;;;;;9.85;2.42;;;;;;;;;;4957883;28;20022;-93
2022/05/05 11:28:06;;;;;;;;;;;;;;;;;;;;;
2022/05/05 11:30:45;;;;;;;;;;;;;;;;;;;;;
2022/05/05 11:33:25;;;;;;;13.75;3.10;;;;;;;;;;5009478;28;20030;-90
2022/05/05 11:36:06;;;;;;;6.40;2.13;;;;;;;;;;4960307;28;20058;-93
2022/05/05 11:39:14;;;;;;;;;;;;;;;;;;;;;
2022/05/05 11:41:56;;;;;;;6.07;1.90;;;;;;;;;;5010319;28;20443;-93
2022/05/05 11:44:24;;;;;;;6.28;2.03;;;;;;;;;;4989074;28;20052;-95
2022/05/05 11:46:53;;;;;;;6.60;2.53;;;;;;;;;;5010339;28;20076;-96
2022/05/05 11:49:35;;;;;;;4.53;2.08;;;;;;;;;;4997036;28;20026;-94
2022/05/05 12:01:45;;;;;;;7.30;2.35;;;;;;;;;;4937245;28;20065;-88
2022/05/05 12:04:22;;;;;;;7.53;2.10;;;;;;;;;;4926650;29;20044;-93
2022/05/05 12:06:55;;;;;;;4.43;2.25;;;;;;;;;;4933420;29;20031;-95
2022/05/05 12:09:28;;;;;;;4.82;1.88;;;;;;;;;;4961145;28;20035;-94
2022/05/05 12:12:18;;;;;;;8.63;2.20;;;;;;;;;;4945031;28;20095;-96
2022/05/05 12:15:05;;;;;;;8.63;2.70;;;;;;;;;;4970667;28;20079;-96
2022/05/05 12:17:42;;;;;;;10.93;2.75;;;;;;;;;;4989165;28;20030;-96
2022/05/05 12:20:13;;;;;;;8.90;2.25;;;;;;;;;;5000142;28;20045;-96
2022/05/05 12:22:41;;;;;;;7.97;3.13;;;;;;;;;;4989880;28;20096;-90
2022/05/05 12:25:47;;;;;;;3.60;2.20;;;;;;;;;;5007372;28;20067;-95
2022/05/05 12:28:54;;;;;;;6.70;2.10;;;;;;;;;;4990398;28;20116;-96
2022/05/05 12:35:20;;;;;;;8.75;2.42;;;;;;;;;;4994936;28;20042;-93
2022/05/05 12:38:05;;;;;;;6.63;2.72;;;;;;;;;;4988116;28;20038;-93
2022/05/05 12:40:42;;;;;;;10.27;3.03;;;;;;;;;;4992199;28;20048;-95
2022/05/05 12:43:25;;;;;;;6.20;2.45;;;;;;;;;;4984516;28;20037;-95
2022/05/05 12:46:19;;;;;;;;;;;;;;;;;;;;;
2022/05/05 12:49:35;;;;;;;3.65;1.90;;;;;;;;;;5005466;28;20176;-94
2022/05/05 13:01:20;;;;;;;7.20;2.15;;;;;;;;;;5003107;28;20040;-96
2022/05/05 13:04:48;;;;;;;6.97;2.42;;;;;;;;;;4990067;28;20053;-93
2022/05/05 13:18:03;;;;;;;3.20;1.08;;;;;;;;;;4969793;28;20035;-95
2022/05/05 13:21:17;;;;;;;;;;;;;;;;;;;;;
2022/05/05 13:24:34;;;;;;;3.85;1.20;;;;;;;;;;4978532;28;20023;-95
2022/05/05 13:27:37;;;;;;;3.25;1.27;;;;;;;;;;4964308;28;20049;-91
2022/05/05 13:30:20;;;;;;;;;;;;;;;;;;;;;
2022/05/05 13:33:43;;;;;;;;;;;;;;;;;;;;;
2022/05/05 13:36:25;;;;;;;;;;;;;;;;;;;;;
2022/05/05 13:38:51;;;;;;;5.22;1.67;;;;;;;;;;5015489;28;20047;-94
2022/05/05 13:41:56;;;;;;;2.20;1.40;;;;;;;;;;4982826;28;20519;-95
2022/05/05 13:44:49;;;;;;;5.32;1.90;;;;;;;;;;4987435;28;20117;-92
2022/05/05 13:47:30;;;;;;;5.70;1.80;;;;;;;;;;4993232;28;20041;-93
2022/05/05 13:50:30;;;;;;;4.57;1.53;;;;;;;;;;4981638;28;20026;-94
2022/05/05 13:53:12;;;;;;;5.15;1.45;;;;;;;;;;4976434;28;20283;-93
2022/05/05 13:56:03;;;;;;;2.80;1.60;;;;;;;;;;4999073;28;20100;-94
2022/05/05 13:58:42;;;;;;;3.53;1.40;;;;;;;;;;4993663;28;20030;-93
2022/05/05 14:01:36;;;;;;;5.63;1.63;;;;;;;;;;4978823;28;20609;-93
2022/05/05 14:04:08;;;;;;;2.25;1.20;;;;;;;;;;4975098;28;20069;-93
2022/05/05 14:07:14;;;;;;;4.00;1.33;;;;;;;;;;4978930;28;20084;-95
2022/05/05 14:13:35;;;;;;;11.07;2.28;;;;;;;;;;5018153;28;20037;-93
2022/05/05 14:19:40;;;;;;;8.68;1.67;;;;;;;;;;4976410;28;20046;-94
2022/05/05 14:22:45;;;;;;;;;;;;;;;;;;;;;
2022/05/05 14:25:47;;;;;;;5.40;1.70;;;;;;;;;;4973744;28;20057;-94
2022/05/05 14:31:19;;;;;;;2.50;1.30;;;;;;;;;;4965237;28;20038;-95
2022/05/05 14:36:54;;;;;;;3.30;1.52;;;;;;;;;;5064833;23;20079;-92
2022/05/05 14:39:23;;;;;;;3.97;1.60;;;;;;;;;;5017153;28;20083;-94
2022/05/05 14:42:29;;;;;;;3.38;1.42;;;;;;;;;;5035158;28;20026;-93
2022/05/05 14:45:49;;;;;;;;;;;;;;;;;;;;;
2022/05/05 14:48:16;;;;;;;11.57;1.65;;;;;;;;;;5034597;28;20039;-93
2022/05/05 14:50:51;;;;;;;5.38;2.00;;;;;;;;;;5004849;28;20086;-94
2022/05/05 14:53:30;;;;;;;8.00;2.20;;;;;;;;;;5013722;28;20030;-95
2022/05/05 14:56:40;;;;;;;3.65;1.70;;;;;;;;;;5015066;28;20116;-95
2022/05/05 14:59:48;;;;;;;;;;;;;;;;;;;;;
2022/05/05 15:02:16;;;;;;;5.18;1.98;;;;;;;;;;5026255;28;20520;-96
2022/05/05 15:05:31;;;;;;;8.88;1.88;;;;;;;;;;5012336;28;20030;-96
2022/05/05 15:08:11;;;;;;;5.60;1.40;;;;;;;;;;5005397;28;20029;-96
2022/05/05 15:10:45;;;;;;;4.72;1.95;;;;;;;;;;5022203;28;20119;-96
2022/05/05 15:13:24;;;;;;;5.57;1.60;;;;;;;;;;5000975;28;20029;-95
2022/05/05 15:16:21;;;;;;;5.65;1.63;;;;;;;;;;5003657;28;20120;-94
2022/05/05 15:18:59;;;;;;;4.15;1.80;;;;;;;;;;5002237;28;20064;-95
2022/05/05 15:21:48;;;;;;;5.53;2.38;;;;;;;;;;5039544;28;20041;-95
2022/05/05 15:24:24;;;;;;;8.90;2.40;;;;;;;;;;5008682;28;20045;-93
2022/05/05 15:26:49;;;;;;;7.00;1.75;;;;;;;;;;5019025;28;20069;-96
2022/05/05 15:29:18;;;;;;;7.32;2.33;;;;;;;;;;5018924;28;20045;-96
2022/05/05 15:32:15;;;;;;;6.63;2.38;;;;;;;;;;5020286;28;20010;-96
2022/05/05 15:35:13;;;;;;;6.22;1.60;;;;;;;;;;5030576;28;20033;-95
2022/05/05 15:37:42;;;;;;;8.02;2.10;;;;;;;;;;5040784;28;20060;-93
2022/05/05 15:40:09;;;;;;;10.15;2.28;;;;;;;;;;5045864;28;20033;-95
2022/05/05 15:43:11;;;;;;;8.93;2.25;;;;;;;;;;5037911;28;20029;-96
2022/05/05 15:45:38;;;;;;;6.88;2.20;;;;;;;;;;5037897;28;20029;-94
2022/05/05 15:48:17;;;;;;;8.65;2.28;;;;;;;;;;5031707;28;20120;-96
2022/05/05 15:51:01;;;;;;;6.50;2.00;;;;;;;;;;5041657;28;20132;-95
2022/05/05 15:53:38;;;;;;;7.82;1.95;;;;;;;;;;5035073;28;20116;-96
2022/05/05 15:56:10;;;;;;;6.22;1.40;;;;;;;;;;5028134;28;20040;-96
2022/05/05 15:58:36;;;;;;;;;;;;;;;;;;5048571;28;20124;-88
2022/05/05 16:02:13;;;;;;;10.57;2.35;;;;;;;;;;5025962;28;19993;-96
2022/05/05 16:05:12;;;;;;;9.80;1.85;;;;;;;;;;5032605;28;20040;-96
2022/05/05 16:11:27;;;;;;;10.50;2.25;;;;;;;;;;4973012;28;20662;-96
2022/05/05 16:13:52;;;;;;;4.22;2.08;;;;;;;;;;4993711;28;20053;-93
2022/05/05 16:16:46;;;;;;;4.75;1.67;;;;;;;;;;5030855;28;20033;-95
2022/05/05 16:19:15;;;;;;;9.35;2.13;;;;;;;;;;5016953;28;20040;-94
2022/05/05 16:22:44;;;;;;;6.57;1.92;;;;;;;;;;5019473;28;20067;-93
2022/05/05 16:30:46;;;;;;;11.57;2.55;;;;;;;;;;5042359;28;20075;-94
2022/05/05 16:33:20;;;;;;;7.93;2.85;;;;;;;;;;5033818;28;20056;-92
2022/05/05 16:36:15;;;;;;;4.95;2.38;;;;;;;;;;5010984;28;20303;-96
2022/05/05 16:39:06;;;;;;;5.20;2.20;;;;;;;;;;5032662;28;20029;-93
2022/05/05 16:42:10;;;;;;;6.75;2.25;;;;;;;;;;4991207;28;20045;-95
2022/05/05 16:45:11;;;;;;;7.65;2.20;;;;;;;;;;5012493;28;20084;-93
2022/05/05 16:51:33;;;;;;;8.43;2.58;;;;;;;;;;5017521;28;20032;-94
2022/05/05 16:54:40;;;;;;;5.88;2.45;;;;;;;;;;5006301;28;20090;-93
2022/05/05 16:57:39;;;;;;;7.97;2.95;;;;;;;;;;4984315;28;20057;-96
2022/05/05 17:00:18;;;;;;;6.97;3.03;;;;;;;;;;4982505;28;20042;-93
2022/05/05 17:02:53;;;;;;;8.57;2.85;;;;;;;;;;5000896;28;20026;-95
2022/05/05 17:05:54;;;;;;;7.22;2.58;;;;;;;;;;4992103;28;20483;-94
2022/05/05 17:08:42;;;;;;;5.07;2.53;;;;;;;;;;4992683;28;20087;-93
2022/05/05 17:11:26;;;;;;;7.88;2.72;;;;;;;;;;5004874;28;20025;-93
2022/05/05 17:14:36;;;;;;;7.53;2.88;;;;;;;;;;5023280;28;20061;-93
2022/05/05 17:17:09;;;;;;;7.43;2.75;;;;;;;;;;4987019;28;20050;-93
2022/05/05 17:19:34;;;;;;;4.05;2.67;;;;;;;;;;5012701;28;20069;-94
2022/05/05 17:22:21;;;;;;;9.82;2.53;;;;;;;;;;5020826;28;20068;-94
2022/05/05 17:25:01;;;;;;;6.30;2.83;;;;;;;;;;4998131;28;20031;-93
2022/05/05 17:28:06;;;;;;;8.02;3.00;;;;;;;;;;4948527;28;20631;-96
2022/05/05 17:30:32;;;;;;;8.75;3.10;;;;;;;;;;4996537;28;20041;-95
2022/05/05 17:33:30;;;;;;;5.88;3.20;;;;;;;;;;4993118;28;20077;-95
2022/05/05 17:36:24;;;;;;;5.22;2.88;;;;;;;;;;4974606;28;20074;-91
2022/05/05 17:39:25;;;;;;;9.98;3.15;;;;;;;;;;5029243;28;20042;-93
2022/05/05 17:42:18;;;;;;;6.07;3.30;;;;;;;;;;4994089;28;20042;-95
2022/05/05 17:53:24;;;;;;;12.60;3.88;;;;;;;;;;5023601;28;20036;-95
2022/05/05 17:56:17;;;;;;;;;;;;;;;;;;5013882;28;20025;-95
2022/05/05 17:58:53;;;;;;;7.03;3.67;;;;;;;;;;5020871;28;19918;-94
2022/05/05 18:01:41;;;;;;;7.45;4.40;;;;;;;;;;5012488;28;20029;-96